Terminal Aerodrome Forecast
Issued by NWS Twin Cities, MN

Current Version | Previous Version | Text Only | Print | Product List | Glossary On
Versions: 1 2 3 4 5 6 7 8 9 10 11 12 13 14 15 16 17
000
FTUS43 KMPX 051140
TAFEAU
TAF
KEAU 051140Z 0512/0612 18007KT P6SM FEW250
     FM051700 19013G21KT P6SM SCT250
     FM060100 17009KT P6SM SCT050 BKN150
     FM060700 17008KT 6SM -SHRA BKN050 OVC120 PROB30 0608/0612 4SM
      TSRA OVC040CB=

USA.gov is the U.S. government's official web portal to all federal, state and local government web resources and services.